sensor_id;sensor_type;location;lat;lon;timestamp;pressure;altitude;pressure_sealevel;temperature;humidity
23446;BME280;11895;48.738;9.320;2023-05-25T00:33:39;99136.63;;;13.45;100.00
23446;BME280;11895;48.738;9.320;2023-05-25T01:43:12;99116.78;;;12.75;84.58
23446;BME280;11895;48.738;9.320;2023-05-25T01:45:40;99123.00;;;12.77;95.25
23446;BME280;11895;48.738;9.320;2023-05-25T01:48:48;99121.44;;;12.71;74.81
23446;BME280;11895;48.738;9.320;2023-05-25T01:54:56;99118.41;;;12.60;100.00
23446;BME280;11895;48.738;9.320;2023-05-25T01:57:30;99120.38;;;12.56;65.18
23446;BME280;11895;48.738;9.320;2023-05-25T02:00:01;99125.78;;;12.56;84.74
23446;BME280;11895;48.738;9.320;2023-05-25T02:02:43;99116.16;;;12.51;63.42
23446;BME280;11895;48.738;9.320;2023-05-25T02:05:12;99122.22;;;12.56;78.06
23446;BME280;11895;48.738;9.320;2023-05-25T02:07:40;99120.28;;;12.41;99.76
23446;BME280;11895;48.738;9.320;2023-05-25T02:10:08;99117.22;;;12.48;87.75
23446;BME280;11895;48.738;9.320;2023-05-25T02:12:36;99110.34;;;12.41;76.57
23446;BME280;11895;48.738;9.320;2023-05-25T02:15:04;99108.09;;;12.32;91.51
23446;BME280;11895;48.738;9.320;2023-05-25T02:17:32;99105.56;;;12.29;100.00
23446;BME280;11895;48.738;9.320;2023-05-25T02:19:59;99105.69;;;12.26;97.02
23446;BME280;11895;48.738;9.320;2023-05-25T02:22:28;99105.38;;;12.32;85.24
23446;BME280;11895;48.738;9.320;2023-05-25T02:24:56;99108.06;;;12.15;100.00
23446;BME280;11895;48.738;9.320;2023-05-25T02:27:23;99105.34;;;12.15;100.00
23446;BME280;11895;48.738;9.320;2023-05-25T02:29:50;99104.41;;;12.16;76.87
23446;BME280;11895;48.738;9.320;2023-05-25T02:32:19;99101.84;;;12.13;100.00
23446;BME280;11895;48.738;9.320;2023-05-25T02:34:47;99095.50;;;12.14;100.00
23446;BME280;11895;48.738;9.320;2023-05-25T02:37:16;99096.94;;;12.21;93.59
23446;BME280;11895;48.738;9.320;2023-05-25T02:39:43;99106.00;;;12.20;100.00
23446;BME280;11895;48.738;9.320;2023-05-25T02:42:11;99103.41;;;11.99;100.00
23446;BME280;11895;48.738;9.320;2023-05-25T02:44:38;99103.88;;;11.89;100.00
23446;BME280;11895;48.738;9.320;2023-05-25T02:47:06;99102.56;;;11.97;100.00
23446;BME280;11895;48.738;9.320;2023-05-25T02:49:33;99104.72;;;12.09;100.00
23446;BME280;11895;48.738;9.320;2023-05-25T02:52:00;99111.72;;;12.14;100.00
23446;BME280;11895;48.738;9.320;2023-05-25T02:54:28;99107.63;;;12.24;100.00
23446;BME280;11895;48.738;9.320;2023-05-25T02:56:57;99107.16;;;12.33;100.00
23446;BME280;11895;48.738;9.320;2023-05-25T02:59:24;99112.41;;;12.36;83.72
23446;BME280;11895;48.738;9.320;2023-05-25T03:01:51;99118.25;;;12.27;99.46
23446;BME280;11895;48.738;9.320;2023-05-25T03:04:19;99111.75;;;12.12;100.00
23446;BME280;11895;48.738;9.320;2023-05-25T03:06:47;99116.94;;;12.17;93.71
23446;BME280;11895;48.738;9.320;2023-05-25T03:09:17;99119.81;;;12.14;100.00
23446;BME280;11895;48.738;9.320;2023-05-25T03:11:48;99128.81;;;12.31;100.00
23446;BME280;11895;48.738;9.320;2023-05-25T03:14:18;99128.59;;;12.36;100.00
23446;BME280;11895;48.738;9.320;2023-05-25T03:16:58;99121.03;;;12.25;100.00
23446;BME280;11895;48.738;9.320;2023-05-25T03:19:26;99120.81;;;12.30;100.00
23446;BME280;11895;48.738;9.320;2023-05-25T03:21:58;99123.38;;;12.33;100.00
23446;BME280;11895;48.738;9.320;2023-05-25T03:24:26;99122.34;;;12.35;80.15
23446;BME280;11895;48.738;9.320;2023-05-25T03:26:58;99134.09;;;12.34;100.00
23446;BME280;11895;48.738;9.320;2023-05-25T03:29:25;99121.78;;;12.29;100.00
23446;BME280;11895;48.738;9.320;2023-05-25T03:32:06;99119.22;;;12.26;100.00
23446;BME280;11895;48.738;9.320;2023-05-25T03:34:35;99122.88;;;12.25;99.77
23446;BME280;11895;48.738;9.320;2023-05-25T03:37:04;99120.72;;;12.31;100.00
23446;BME280;11895;48.738;9.320;2023-05-25T03:39:32;99119.34;;;12.23;85.22
23446;BME280;11895;48.738;9.320;2023-05-25T03:41:59;99120.06;;;12.26;80.40
23446;BME280;11895;48.738;9.320;2023-05-25T03:44:26;99123.97;;;12.21;88.58
23446;BME280;11895;48.738;9.320;2023-05-25T03:46:54;99113.81;;;12.26;100.00
23446;BME280;11895;48.738;9.320;2023-05-25T03:49:21;99113.59;;;12.30;100.00
23446;BME280;11895;48.738;9.320;2023-05-25T03:51:48;99125.78;;;12.39;94.67
23446;BME280;11895;48.738;9.320;2023-05-25T03:54:16;99120.69;;;12.50;98.45
23446;BME280;11895;48.738;9.320;2023-05-25T03:56:43;99122.06;;;12.59;100.00
23446;BME280;11895;48.738;9.320;2023-05-25T03:59:11;99132.06;;;12.57;99.53
23446;BME280;11895;48.738;9.320;2023-05-25T04:01:39;99134.09;;;12.71;91.88
23446;BME280;11895;48.738;9.320;2023-05-25T04:04:06;99137.88;;;12.67;98.08
23446;BME280;11895;48.738;9.320;2023-05-25T04:10:18;99152.56;;;12.80;91.68
23446;BME280;11895;48.738;9.320;2023-05-25T04:12:46;99143.66;;;12.95;87.89
23446;BME280;11895;48.738;9.320;2023-05-25T04:15:15;99152.00;;;12.91;99.59
23446;BME280;11895;48.738;9.320;2023-05-25T04:17:55;99155.91;;;12.85;93.79
23446;BME280;11895;48.738;9.320;2023-05-25T04:20:25;99145.59;;;12.93;93.95
23446;BME280;11895;48.738;9.320;2023-05-25T04:22:55;99149.06;;;12.95;99.02
23446;BME280;11895;48.738;9.320;2023-05-25T04:29:11;99144.53;;;12.96;100.00
23446;BME280;11895;48.738;9.320;2023-05-25T04:31:57;99149.88;;;12.97;100.00
23446;BME280;11895;48.738;9.320;2023-05-25T04:34:51;99146.13;;;13.00;100.00
23446;BME280;11895;48.738;9.320;2023-05-25T04:37:23;99145.13;;;13.02;100.00
23446;BME280;11895;48.738;9.320;2023-05-25T04:39:54;99159.75;;;13.16;100.00
23446;BME280;11895;48.738;9.320;2023-05-25T04:42:24;99153.09;;;13.23;92.26
23446;BME280;11895;48.738;9.320;2023-05-25T04:44:54;99161.06;;;13.26;99.34
23446;BME280;11895;48.738;9.320;2023-05-25T04:47:25;99155.63;;;13.43;100.00
23446;BME280;11895;48.738;9.320;2023-05-25T04:49:53;99153.34;;;13.35;97.04
23446;BME280;11895;48.738;9.320;2023-05-25T04:59:48;99168.53;;;13.38;100.00
23446;BME280;11895;48.738;9.320;2023-05-25T05:02:17;99170.59;;;13.33;100.00
23446;BME280;11895;48.738;9.320;2023-05-25T05:04:45;99177.34;;;13.24;100.00
23446;BME280;11895;48.738;9.320;2023-05-25T05:10:56;99162.25;;;13.37;100.00
23446;BME280;11895;48.738;9.320;2023-05-25T05:13:25;99166.47;;;13.43;100.00
23446;BME280;11895;48.738;9.320;2023-05-25T05:15:53;99165.41;;;13.63;94.47
23446;BME280;11895;48.738;9.320;2023-05-25T05:18:23;99172.72;;;13.78;96.60
23446;BME280;11895;48.738;9.320;2023-05-25T05:20:52;99180.41;;;13.86;100.00
23446;BME280;11895;48.738;9.320;2023-05-25T05:23:20;99179.75;;;13.98;89.14
23446;BME280;11895;48.738;9.320;2023-05-25T05:25:49;99174.72;;;14.08;96.74
23446;BME280;11895;48.738;9.320;2023-05-25T05:28:16;99177.59;;;14.21;100.00
23446;BME280;11895;48.738;9.320;2023-05-25T05:30:44;99185.38;;;14.11;100.00
23446;BME280;11895;48.738;9.320;2023-05-25T05:33:13;99185.72;;;14.21;100.00
23446;BME280;11895;48.738;9.320;2023-05-25T05:35:45;99180.31;;;14.21;100.00
23446;BME280;11895;48.738;9.320;2023-05-25T05:38:19;99195.63;;;14.22;98.83
23446;BME280;11895;48.738;9.320;2023-05-25T05:40:47;99189.03;;;14.10;100.00
23446;BME280;11895;48.738;9.320;2023-05-25T05:43:19;99193.94;;;14.19;100.00
23446;BME280;11895;48.738;9.320;2023-05-25T05:45:46;99197.28;;;14.40;100.00
23446;BME280;11895;48.738;9.320;2023-05-25T05:48:14;99196.41;;;14.24;100.00
23446;BME280;11895;48.738;9.320;2023-05-25T05:50:42;99197.97;;;14.12;100.00
23446;BME280;11895;48.738;9.320;2023-05-25T05:53:12;99189.25;;;14.23;100.00
23446;BME280;11895;48.738;9.320;2023-05-25T05:55:39;99195.78;;;14.52;100.00
23446;BME280;11895;48.738;9.320;2023-05-25T05:58:07;99198.44;;;14.36;100.00
23446;BME280;11895;48.738;9.320;2023-05-25T06:00:34;99203.59;;;14.40;100.00
23446;BME280;11895;48.738;9.320;2023-05-25T06:03:02;99211.53;;;14.28;100.00
23446;BME280;11895;48.738;9.320;2023-05-25T06:05:30;99217.06;;;14.42;100.00
23446;BME280;11895;48.738;9.320;2023-05-25T06:07:58;99220.19;;;14.68;100.00
23446;BME280;11895;48.738;9.320;2023-05-25T06:10:27;99218.06;;;14.88;100.00
23446;BME280;11895;48.738;9.320;2023-05-25T06:12:55;99216.19;;;15.21;100.00
23446;BME280;11895;48.738;9.320;2023-05-25T06:15:22;99220.16;;;15.45;96.60
23446;BME280;11895;48.738;9.320;2023-05-25T06:17:53;99208.75;;;15.54;100.00
23446;BME280;11895;48.738;9.320;2023-05-25T06:20:21;99216.56;;;15.75;98.37
23446;BME280;11895;48.738;9.320;2023-05-25T06:22:48;99206.50;;;15.77;94.39
23446;BME280;11895;48.738;9.320;2023-05-25T06:25:16;99207.25;;;15.64;100.00
23446;BME280;11895;48.738;9.320;2023-05-25T06:27:43;99207.09;;;15.82;98.43
23446;BME280;11895;48.738;9.320;2023-05-25T06:30:12;99216.63;;;16.03;97.53
23446;BME280;11895;48.738;9.320;2023-05-25T06:32:40;99215.28;;;16.25;98.74
23446;BME280;11895;48.738;9.320;2023-05-25T06:35:09;99218.88;;;16.39;94.33
23446;BME280;11895;48.738;9.320;2023-05-25T06:37:45;99213.88;;;16.60;95.29
23446;BME280;11895;48.738;9.320;2023-05-25T06:40:14;99220.88;;;16.79;95.65
23446;BME280;11895;48.738;9.320;2023-05-25T06:42:42;99221.44;;;16.98;93.71
23446;BME280;11895;48.738;9.320;2023-05-25T06:45:30;99226.63;;;17.01;90.02
23446;BME280;11895;48.738;9.320;2023-05-25T06:47:58;99224.34;;;17.22;91.65
23446;BME280;11895;48.738;9.320;2023-05-25T06:50:26;99223.56;;;17.47;88.25
23446;BME280;11895;48.738;9.320;2023-05-25T06:52:53;99229.63;;;17.78;84.01
23446;BME280;11895;48.738;9.320;2023-05-25T06:55:20;99223.13;;;18.06;79.94
23446;BME280;11895;48.738;9.320;2023-05-25T06:57:47;99226.94;;;18.16;78.11
23446;BME280;11895;48.738;9.320;2023-05-25T07:00:15;99229.69;;;18.29;76.09
23446;BME280;11895;48.738;9.320;2023-05-25T07:02:43;99223.22;;;18.55;73.94
23446;BME280;11895;48.738;9.320;2023-05-25T07:05:10;99230.19;;;18.59;75.15
23446;BME280;11895;48.738;9.320;2023-05-25T07:07:38;99239.91;;;18.63;76.76
23446;BME280;11895;48.738;9.320;2023-05-25T07:10:06;99241.84;;;18.61;75.76
23446;BME280;11895;48.738;9.320;2023-05-25T07:12:34;99248.97;;;18.51;76.02
23446;BME280;11895;48.738;9.320;2023-05-25T07:15:01;99254.41;;;18.51;78.04
23446;BME280;11895;48.738;9.320;2023-05-25T07:17:28;99249.41;;;18.58;76.96
23446;BME280;11895;48.738;9.320;2023-05-25T07:19:57;99244.34;;;18.90;72.15
23446;BME280;11895;48.738;9.320;2023-05-25T07:22:25;99251.97;;;18.97;72.34
23446;BME280;11895;48.738;9.320;2023-05-25T07:24:52;99257.47;;;19.21;69.69
23446;BME280;11895;48.738;9.320;2023-05-25T07:27:19;99257.50;;;19.33;69.83
23446;BME280;11895;48.738;9.320;2023-05-25T07:29:47;99258.56;;;19.43;67.27
23446;BME280;11895;48.738;9.320;2023-05-25T07:32:14;99258.22;;;19.71;66.92
23446;BME280;11895;48.738;9.320;2023-05-25T07:34:41;99260.25;;;19.81;65.78
23446;BME280;11895;48.738;9.320;2023-05-25T07:37:09;99257.81;;;20.00;64.98
23446;BME280;11895;48.738;9.320;2023-05-25T07:39:37;99261.84;;;20.07;62.80
23446;BME280;11895;48.738;9.320;2023-05-25T07:42:06;99263.34;;;20.22;61.90
23446;BME280;11895;48.738;9.320;2023-05-25T07:44:33;99263.38;;;20.34;62.57
23446;BME280;11895;48.738;9.320;2023-05-25T07:47:01;99266.53;;;20.63;61.57
23446;BME280;11895;48.738;9.320;2023-05-25T07:49:28;99267.91;;;20.79;60.46
23446;BME280;11895;48.738;9.320;2023-05-25T07:51:55;99265.97;;;20.35;63.10
23446;BME280;11895;48.738;9.320;2023-05-25T07:54:23;99262.41;;;20.46;63.03
23446;BME280;11895;48.738;9.320;2023-05-25T07:56:50;99259.22;;;20.74;61.38
23446;BME280;11895;48.738;9.320;2023-05-25T07:59:18;99253.75;;;20.74;62.28
23446;BME280;11895;48.738;9.320;2023-05-25T08:01:45;99254.84;;;20.72;62.59
23446;BME280;11895;48.738;9.320;2023-05-25T08:04:12;99246.41;;;20.75;62.22
23446;BME280;11895;48.738;9.320;2023-05-25T08:06:40;99240.78;;;20.76;62.67
23446;BME280;11895;48.738;9.320;2023-05-25T08:09:10;99237.56;;;20.71;63.15
23446;BME280;11895;48.738;9.320;2023-05-25T08:11:39;99243.75;;;20.73;63.62
23446;BME280;11895;48.738;9.320;2023-05-25T08:14:06;99244.25;;;20.78;64.34
23446;BME280;11895;48.738;9.320;2023-05-25T08:16:33;99247.75;;;20.81;66.11
23446;BME280;11895;48.738;9.320;2023-05-25T08:19:01;99248.97;;;20.88;66.22
23446;BME280;11895;48.738;9.320;2023-05-25T08:21:28;99252.47;;;20.90;65.28
23446;BME280;11895;48.738;9.320;2023-05-25T08:23:55;99247.88;;;20.90;64.13
23446;BME280;11895;48.738;9.320;2023-05-25T08:26:23;99237.69;;;20.70;65.93
23446;BME280;11895;48.738;9.320;2023-05-25T08:29:11;99238.28;;;20.73;66.31
23446;BME280;11895;48.738;9.320;2023-05-25T08:31:38;99237.78;;;20.68;67.00
23446;BME280;11895;48.738;9.320;2023-05-25T08:34:08;99249.69;;;20.34;70.30
23446;BME280;11895;48.738;9.320;2023-05-25T08:36:36;99253.31;;;20.45;70.95
23446;BME280;11895;48.738;9.320;2023-05-25T08:39:03;99248.88;;;20.56;73.98
23446;BME280;11895;48.738;9.320;2023-05-25T08:41:32;99251.50;;;20.79;69.83
23446;BME280;11895;48.738;9.320;2023-05-25T08:44:02;99246.69;;;20.14;75.78
23446;BME280;11895;48.738;9.320;2023-05-25T08:46:32;99245.72;;;20.26;79.33
23446;BME280;11895;48.738;9.320;2023-05-25T08:49:18;99244.25;;;20.78;70.77
23446;BME280;11895;48.738;9.320;2023-05-25T08:51:52;99253.97;;;20.94;69.38
23446;BME280;11895;48.738;9.320;2023-05-25T08:54:36;99253.06;;;21.16;67.05
23446;BME280;11895;48.738;9.320;2023-05-25T09:03:06;99247.16;;;21.75;60.74
23446;BME280;11895;48.738;9.320;2023-05-25T09:05:37;99243.69;;;21.94;60.69
23446;BME280;11895;48.738;9.320;2023-05-25T09:08:06;99244.72;;;21.93;61.41
23446;BME280;11895;48.738;9.320;2023-05-25T09:10:36;99243.53;;;21.74;60.26
23446;BME280;11895;48.738;9.320;2023-05-25T09:13:05;99242.22;;;21.90;60.36
23446;BME280;11895;48.738;9.320;2023-05-25T09:15:48;99253.16;;;22.01;59.93
23446;BME280;11895;48.738;9.320;2023-05-25T09:18:16;99248.56;;;21.90;60.02
23446;BME280;11895;48.738;9.320;2023-05-25T09:20:44;99245.78;;;22.43;57.43
23446;BME280;11895;48.738;9.320;2023-05-25T09:23:15;99258.94;;;22.40;56.97
23446;BME280;11895;48.738;9.320;2023-05-25T09:25:46;99255.38;;;22.49;56.41
23446;BME280;11895;48.738;9.320;2023-05-25T09:28:18;99262.81;;;22.89;54.81
23446;BME280;11895;48.738;9.320;2023-05-25T09:30:49;99261.84;;;22.48;57.18
23446;BME280;11895;48.738;9.320;2023-05-25T09:33:17;99260.25;;;22.97;54.66
23446;BME280;11895;48.738;9.320;2023-05-25T09:35:46;99257.00;;;22.30;55.88
23446;BME280;11895;48.738;9.320;2023-05-25T09:38:15;99259.16;;;23.28;55.22
23446;BME280;11895;48.738;9.320;2023-05-25T09:40:43;99252.53;;;22.91;55.22
23446;BME280;11895;48.738;9.320;2023-05-25T09:43:15;99260.13;;;23.68;53.56
23446;BME280;11895;48.738;9.320;2023-05-25T09:45:58;99268.41;;;23.18;54.26
23446;BME280;11895;48.738;9.320;2023-05-25T09:48:26;99270.44;;;23.25;51.67
23446;BME280;11895;48.738;9.320;2023-05-25T09:50:55;99260.56;;;23.13;55.20
23446;BME280;11895;48.738;9.320;2023-05-25T09:53:22;99260.97;;;22.68;55.47
23446;BME280;11895;48.738;9.320;2023-05-25T09:55:50;99253.69;;;22.37;58.22
23446;BME280;11895;48.738;9.320;2023-05-25T09:58:22;99254.91;;;22.44;57.49
23446;BME280;11895;48.738;9.320;2023-05-25T10:00:54;99263.13;;;23.05;55.05
23446;BME280;11895;48.738;9.320;2023-05-25T10:03:21;99252.75;;;22.47;57.17
23446;BME280;11895;48.738;9.320;2023-05-25T10:05:50;99256.28;;;23.40;54.44
23446;BME280;11895;48.738;9.320;2023-05-25T10:08:20;99252.03;;;23.76;52.58
23446;BME280;11895;48.738;9.320;2023-05-25T10:10:49;99247.78;;;24.20;49.59
23446;BME280;11895;48.738;9.320;2023-05-25T10:13:21;99248.59;;;24.59;48.93
23446;BME280;11895;48.738;9.320;2023-05-25T10:15:52;99251.59;;;24.76;49.20
23446;BME280;11895;48.738;9.320;2023-05-25T10:18:27;99249.00;;;25.02;48.76
23446;BME280;11895;48.738;9.320;2023-05-25T10:21:03;99233.59;;;25.36;46.35
23446;BME280;11895;48.738;9.320;2023-05-25T10:23:46;99252.72;;;25.83;45.05
23446;BME280;11895;48.738;9.320;2023-05-25T10:26:18;99250.75;;;26.11;44.92
23446;BME280;11895;48.738;9.320;2023-05-25T10:28:54;99260.28;;;26.17;44.24
23446;BME280;11895;48.738;9.320;2023-05-25T10:31:22;99245.91;;;26.31;42.90
23446;BME280;11895;48.738;9.320;2023-05-25T10:33:55;99249.16;;;25.91;42.42
23446;BME280;11895;48.738;9.320;2023-05-25T10:36:25;99260.41;;;26.15;43.22
23446;BME280;11895;48.738;9.320;2023-05-25T10:38:54;99257.41;;;26.71;41.52
23446;BME280;11895;48.738;9.320;2023-05-25T10:41:22;99245.81;;;26.67;41.54
23446;BME280;11895;48.738;9.320;2023-05-25T10:43:50;99252.84;;;25.64;42.98
23446;BME280;11895;48.738;9.320;2023-05-25T10:46:20;99245.81;;;25.34;44.14
23446;BME280;11895;48.738;9.320;2023-05-25T10:48:50;99249.94;;;26.01;43.48
23446;BME280;11895;48.738;9.320;2023-05-25T10:51:19;99241.97;;;26.60;42.17
23446;BME280;11895;48.738;9.320;2023-05-25T10:53:59;99242.88;;;27.03;41.03
23446;BME280;11895;48.738;9.320;2023-05-25T10:56:30;99242.78;;;25.91;42.66
23446;BME280;11895;48.738;9.320;2023-05-25T10:58:58;99245.84;;;24.97;46.14
23446;BME280;11895;48.738;9.320;2023-05-25T11:01:26;99244.47;;;26.27;44.01
23446;BME280;11895;48.738;9.320;2023-05-25T11:04:14;99258.03;;;26.90;42.26
23446;BME280;11895;48.738;9.320;2023-05-25T11:09:28;99251.03;;;27.55;39.77
23446;BME280;11895;48.738;9.320;2023-05-25T11:11:59;99254.53;;;27.65;39.58
23446;BME280;11895;48.738;9.320;2023-05-25T11:14:30;99257.03;;;28.09;38.81
23446;BME280;11895;48.738;9.320;2023-05-25T11:19:48;99245.19;;;28.80;36.79
23446;BME280;11895;48.738;9.320;2023-05-25T11:22:20;99246.31;;;28.63;37.87
23446;BME280;11895;48.738;9.320;2023-05-25T11:28:07;99239.50;;;27.09;39.50
23446;BME280;11895;48.738;9.320;2023-05-25T11:30:39;99232.09;;;27.76;39.39
23446;BME280;11895;48.738;9.320;2023-05-25T11:33:08;99237.22;;;27.55;40.22
23446;BME280;11895;48.738;9.320;2023-05-25T11:35:36;99226.50;;;27.52;39.83
23446;BME280;11895;48.738;9.320;2023-05-25T11:38:06;99234.75;;;26.67;40.36
23446;BME280;11895;48.738;9.320;2023-05-25T11:40:34;99240.22;;;26.15;41.82
23446;BME280;11895;48.738;9.320;2023-05-25T11:43:07;99237.66;;;25.32;43.66
23446;BME280;11895;48.738;9.320;2023-05-25T11:45:36;99221.16;;;26.48;42.18
23446;BME280;11895;48.738;9.320;2023-05-25T11:48:05;99226.97;;;26.62;41.43
23446;BME280;11895;48.738;9.320;2023-05-25T11:50:33;99232.31;;;27.40;40.19
23446;BME280;11895;48.738;9.320;2023-05-25T11:53:04;99230.81;;;27.04;40.16
23446;BME280;11895;48.738;9.320;2023-05-25T11:55:34;99225.84;;;26.81;40.66
23446;BME280;11895;48.738;9.320;2023-05-25T11:58:02;99227.19;;;26.43;42.18
23446;BME280;11895;48.738;9.320;2023-05-25T12:03:07;99237.16;;;26.62;42.58
23446;BME280;11895;48.738;9.320;2023-05-25T12:05:40;99229.00;;;28.12;38.70
23446;BME280;11895;48.738;9.320;2023-05-25T12:08:08;99220.03;;;28.34;38.08
23446;BME280;11895;48.738;9.320;2023-05-25T12:10:48;99218.72;;;28.61;36.43
23446;BME280;11895;48.738;9.320;2023-05-25T12:13:19;99213.00;;;27.65;37.79
23446;BME280;11895;48.738;9.320;2023-05-25T12:15:48;99228.28;;;27.93;37.34
23446;BME280;11895;48.738;9.320;2023-05-25T12:18:16;99216.16;;;28.52;37.29
23446;BME280;11895;48.738;9.320;2023-05-25T12:20:45;99220.03;;;28.90;36.79
23446;BME280;11895;48.738;9.320;2023-05-25T12:23:15;99219.91;;;30.83;33.89
23446;BME280;11895;48.738;9.320;2023-05-25T12:25:44;99224.88;;;30.20;33.41
23446;BME280;11895;48.738;9.320;2023-05-25T12:28:17;99211.16;;;30.57;32.76
23446;BME280;11895;48.738;9.320;2023-05-25T12:30:45;99217.91;;;30.39;33.36
23446;BME280;11895;48.738;9.320;2023-05-25T12:33:13;99209.53;;;31.07;32.63
23446;BME280;11895;48.738;9.320;2023-05-25T12:35:46;99206.84;;;31.64;31.31
23446;BME280;11895;48.738;9.320;2023-05-25T12:38:19;99215.91;;;32.09;31.88
23446;BME280;11895;48.738;9.320;2023-05-25T12:41:06;99214.81;;;31.82;31.85
23446;BME280;11895;48.738;9.320;2023-05-25T12:43:38;99220.66;;;31.36;32.23
23446;BME280;11895;48.738;9.320;2023-05-25T12:46:07;99219.41;;;30.80;32.53
23446;BME280;11895;48.738;9.320;2023-05-25T12:48:35;99224.97;;;29.58;33.74
23446;BME280;11895;48.738;9.320;2023-05-25T12:51:04;99221.53;;;29.79;34.36
23446;BME280;11895;48.738;9.320;2023-05-25T12:53:46;99226.16;;;32.02;30.87
23446;BME280;11895;48.738;9.320;2023-05-25T12:56:21;99221.19;;;34.32;28.66
23446;BME280;11895;48.738;9.320;2023-05-25T12:58:49;99220.28;;;35.69;26.01
23446;BME280;11895;48.738;9.320;2023-05-25T13:01:16;99222.50;;;30.85;31.08
23446;BME280;11895;48.738;9.320;2023-05-25T13:03:44;99215.41;;;31.27;31.51
23446;BME280;11895;48.738;9.320;2023-05-25T13:06:12;99213.59;;;31.55;30.72
23446;BME280;11895;48.738;9.320;2023-05-25T13:08:40;99212.09;;;31.74;30.63
23446;BME280;11895;48.738;9.320;2023-05-25T13:11:07;99211.78;;;31.62;31.38
23446;BME280;11895;48.738;9.320;2023-05-25T13:13:35;99215.47;;;31.48;31.83
23446;BME280;11895;48.738;9.320;2023-05-25T13:16:03;99210.72;;;30.30;32.72
23446;BME280;11895;48.738;9.320;2023-05-25T13:18:31;99203.31;;;30.75;31.96
23446;BME280;11895;48.738;9.320;2023-05-25T13:20:59;99207.88;;;28.19;35.60
23446;BME280;11895;48.738;9.320;2023-05-25T13:23:27;99208.28;;;29.27;34.94
23446;BME280;11895;48.738;9.320;2023-05-25T13:25:55;99211.16;;;29.73;34.24
23446;BME280;11895;48.738;9.320;2023-05-25T13:28:22;99194.38;;;29.89;33.88
23446;BME280;11895;48.738;9.320;2023-05-25T13:30:50;99210.53;;;30.09;33.59
23446;BME280;11895;48.738;9.320;2023-05-25T13:33:18;99199.53;;;30.38;33.40
23446;BME280;11895;48.738;9.320;2023-05-25T13:35:45;99198.44;;;32.22;30.71
23446;BME280;11895;48.738;9.320;2023-05-25T13:38:34;99204.44;;;34.59;27.98
23446;BME280;11895;48.738;9.320;2023-05-25T13:41:03;99198.81;;;35.43;26.49
23446;BME280;11895;48.738;9.320;2023-05-25T13:43:31;99195.44;;;35.35;26.53
23446;BME280;11895;48.738;9.320;2023-05-25T13:45:59;99203.28;;;34.99;26.51
23446;BME280;11895;48.738;9.320;2023-05-25T13:48:27;99200.09;;;32.94;28.58
23446;BME280;11895;48.738;9.320;2023-05-25T13:50:56;99193.91;;;31.57;30.59
23446;BME280;11895;48.738;9.320;2023-05-25T13:53:24;99207.13;;;31.18;31.39
23446;BME280;11895;48.738;9.320;2023-05-25T13:55:51;99199.84;;;31.03;31.93
23446;BME280;11895;48.738;9.320;2023-05-25T13:58:19;99201.66;;;30.66;32.14
23446;BME280;11895;48.738;9.320;2023-05-25T14:00:48;99196.56;;;31.65;30.93
23446;BME280;11895;48.738;9.320;2023-05-25T14:03:16;99194.34;;;32.18;30.38
23446;BME280;11895;48.738;9.320;2023-05-25T14:05:43;99195.41;;;32.17;31.30
23446;BME280;11895;48.738;9.320;2023-05-25T14:08:11;99192.00;;;31.79;30.68
23446;BME280;11895;48.738;9.320;2023-05-25T14:10:40;99190.50;;;32.40;29.82
23446;BME280;11895;48.738;9.320;2023-05-25T14:13:10;99192.69;;;33.21;28.84
23446;BME280;11895;48.738;9.320;2023-05-25T14:15:38;99195.94;;;32.83;28.88
23446;BME280;11895;48.738;9.320;2023-05-25T14:18:05;99195.16;;;32.96;29.37
23446;BME280;11895;48.738;9.320;2023-05-25T14:20:33;99186.00;;;32.74;29.56
23446;BME280;11895;48.738;9.320;2023-05-25T14:23:03;99191.50;;;32.61;29.71
23446;BME280;11895;48.738;9.320;2023-05-25T14:25:32;99184.56;;;32.50;29.73
23446;BME280;11895;48.738;9.320;2023-05-25T14:28:00;99186.22;;;32.44;29.75
23446;BME280;11895;48.738;9.320;2023-05-25T14:30:27;99189.75;;;34.04;27.44
23446;BME280;11895;48.738;9.320;2023-05-25T14:32:55;99189.78;;;35.41;26.05
23446;BME280;11895;48.738;9.320;2023-05-25T14:35:23;99186.19;;;36.79;24.39
23446;BME280;11895;48.738;9.320;2023-05-25T14:37:50;99195.38;;;37.96;23.14
23446;BME280;11895;48.738;9.320;2023-05-25T14:40:18;99189.53;;;38.10;22.82
23446;BME280;11895;48.738;9.320;2023-05-25T14:42:47;99190.16;;;37.33;23.17
23446;BME280;11895;48.738;9.320;2023-05-25T14:45:15;99190.16;;;36.96;24.18
23446;BME280;11895;48.738;9.320;2023-05-25T14:47:42;99193.28;;;36.13;24.97
23446;BME280;11895;48.738;9.320;2023-05-25T14:50:10;99195.06;;;35.63;25.39
23446;BME280;11895;48.738;9.320;2023-05-25T14:52:38;99194.28;;;31.68;28.82
23446;BME280;11895;48.738;9.320;2023-05-25T14:55:06;99195.00;;;31.77;31.22
23446;BME280;11895;48.738;9.320;2023-05-25T14:57:35;99197.41;;;32.02;30.09
23446;BME280;11895;48.738;9.320;2023-05-25T15:00:03;99192.00;;;31.79;29.82
23446;BME280;11895;48.738;9.320;2023-05-25T15:02:32;99188.94;;;31.88;30.20
23446;BME280;11895;48.738;9.320;2023-05-25T15:05:00;99191.75;;;33.00;29.26
23446;BME280;11895;48.738;9.320;2023-05-25T15:07:29;99198.91;;;33.58;28.74
23446;BME280;11895;48.738;9.320;2023-05-25T15:09:56;99193.00;;;34.67;26.62
23446;BME280;11895;48.738;9.320;2023-05-25T15:12:24;99195.56;;;34.22;27.73
23446;BME280;11895;48.738;9.320;2023-05-25T15:14:52;99191.56;;;33.50;27.87
23446;BME280;11895;48.738;9.320;2023-05-25T15:17:19;99191.34;;;33.04;28.53
23446;BME280;11895;48.738;9.320;2023-05-25T15:19:47;99186.31;;;32.58;28.80
23446;BME280;11895;48.738;9.320;2023-05-25T15:22:15;99188.38;;;32.49;29.29
23446;BME280;11895;48.738;9.320;2023-05-25T15:24:43;99186.41;;;33.06;29.11
23446;BME280;11895;48.738;9.320;2023-05-25T15:27:11;99183.50;;;35.01;26.04
23446;BME280;11895;48.738;9.320;2023-05-25T15:29:38;99181.50;;;34.95;25.99